Time;durP1;ratioP1;P1;durP2;ratioP2;P2;SDS_P1;SDS_P2;PMS_P1;PMS_P2;Temp;Humidity;BMP_temperature;BMP_pressure;BME280_temperature;BME280_humidity;BME280_pressure;Samples;Min_cycle;Max_cycle;Signal;HPM_P1;HPM_P2
2022/09/02 00:01:30;;;;;;;3.88;1.73;;;15.50;99.90;;;;;;5097693;28;20056;-50
2022/09/02 00:04:22;;;;;;;3.08;1.50;;;15.60;99.90;;;;;;5096203;28;20044;-52
2022/09/02 00:06:49;;;;;;;4.85;1.75;;;15.50;99.90;;;;;;5097567;28;20052;-51
2022/09/02 00:09:18;;;;;;;4.18;1.75;;;15.60;99.90;;;;;;5095712;28;20039;-52
2022/09/02 00:11:46;;;;;;;4.50;1.73;;;15.50;99.90;;;;;;5096557;28;20064;-49
2022/09/02 00:14:16;;;;;;;5.47;1.60;;;15.30;99.90;;;;;;5097767;28;20097;-51
2022/09/02 00:16:49;;;;;;;5.78;1.92;;;15.40;99.90;;;;;;5091569;28;20058;-51
2022/09/02 00:19:17;;;;;;;4.82;1.90;;;15.40;99.90;;;;;;5077781;28;20044;-50
2022/09/02 00:21:43;;;;;;;3.72;1.60;;;15.30;99.90;;;;;;5080946;28;20063;-49
2022/09/02 00:24:09;;;;;;;3.33;1.50;;;15.30;99.90;;;;;;5081906;28;20032;-51
2022/09/02 00:26:34;;;;;;;3.70;1.63;;;15.30;99.90;;;;;;5081101;28;20098;-50
2022/09/02 00:29:00;;;;;;;4.72;1.77;;;15.30;99.90;;;;;;5081384;28;20040;-51
2022/09/02 00:31:27;;;;;;;3.47;1.60;;;15.30;99.90;;;;;;5081527;28;20032;-49
2022/09/02 00:33:54;;;;;;;6.53;1.92;;;15.30;99.90;;;;;;5081084;28;20506;-51
2022/09/02 00:36:20;;;;;;;4.78;1.83;;;15.30;99.90;;;;;;5081509;28;20096;-52
2022/09/02 00:38:46;;;;;;;4.38;1.67;;;15.20;99.90;;;;;;5092256;28;20035;-52
2022/09/02 00:41:13;;;;;;;5.35;2.33;;;15.30;99.90;;;;;;5101648;28;20048;-51
2022/09/02 00:43:47;;;;;;;4.60;1.80;;;15.30;99.90;;;;;;5100911;28;20137;-49
2022/09/02 00:46:16;;;;;;;3.97;1.80;;;15.20;99.90;;;;;;5101659;28;20058;-51
2022/09/02 00:49:03;;;;;;;4.65;1.73;;;15.20;99.90;;;;;;5101574;28;20055;-51
2022/09/02 00:51:43;;;;;;;7.47;1.67;;;15.20;99.90;;;;;;5100908;28;20044;-48
2022/09/02 00:54:11;;;;;;;3.92;1.70;;;15.10;99.90;;;;;;5101569;28;20036;-51
2022/09/02 00:56:40;;;;;;;5.40;1.75;;;15.10;99.90;;;;;;5099202;28;20063;-49
2022/09/02 00:59:07;;;;;;;5.60;1.70;;;15.10;99.90;;;;;;5101544;28;20055;-51
2022/09/02 01:01:34;;;;;;;4.63;1.60;;;15.10;99.90;;;;;;5101239;28;20075;-51
2022/09/02 01:03:59;;;;;;;4.30;1.75;;;15.10;99.90;;;;;;5100862;28;20063;-52
2022/09/02 01:06:27;;;;;;;5.63;1.67;;;15.00;99.90;;;;;;5101096;28;20096;-52
2022/09/02 01:09:00;;;;;;;4.68;1.70;;;14.90;99.90;;;;;;5098764;28;20063;-50
2022/09/02 01:11:37;;;;;;;3.83;1.48;;;15.00;99.90;;;;;;5101257;28;20039;-51
2022/09/02 01:14:05;;;;;;;4.13;1.67;;;15.00;99.90;;;;;;5100486;28;20518;-51
2022/09/02 01:16:38;;;;;;;4.10;1.88;;;14.90;99.90;;;;;;5097695;28;20370;-49
2022/09/02 01:19:09;;;;;;;4.43;1.60;;;14.90;99.90;;;;;;5080352;28;20075;-51
2022/09/02 01:21:35;;;;;;;6.13;2.10;;;14.90;99.90;;;;;;5079982;28;20040;-50
2022/09/02 01:24:01;;;;;;;5.25;1.95;;;14.80;99.90;;;;;;5080737;28;20091;-49
2022/09/02 01:26:26;;;;;;;4.60;1.70;;;14.70;99.90;;;;;;5079805;28;20098;-52
2022/09/02 01:28:52;;;;;;;5.38;2.00;;;14.70;99.90;;;;;;5080547;28;20037;-51
2022/09/02 01:31:18;;;;;;;4.93;2.10;;;14.70;99.90;;;;;;5079484;28;20032;-51
2022/09/02 01:33:43;;;;;;;3.95;1.60;;;14.80;99.90;;;;;;5080258;28;20051;-52
2022/09/02 01:36:09;;;;;;;7.80;2.10;;;14.70;99.90;;;;;;5080522;28;20051;-50
2022/09/02 01:38:35;;;;;;;5.28;2.45;;;14.60;99.90;;;;;;5091464;28;20040;-47
2022/09/02 01:41:01;;;;;;;4.22;2.00;;;14.70;99.90;;;;;;5098843;28;20044;-49
2022/09/02 01:43:28;;;;;;;5.03;2.05;;;14.50;99.90;;;;;;5099829;28;20119;-53
2022/09/02 01:45:56;;;;;;;6.10;2.10;;;14.50;99.90;;;;;;5100703;28;20039;-48
2022/09/02 01:48:22;;;;;;;4.40;1.90;;;14.50;99.90;;;;;;5100106;28;20467;-51
2022/09/02 01:50:55;;;;;;;6.60;2.10;;;14.60;99.90;;;;;;5100177;28;20044;-49
2022/09/02 01:53:21;;;;;;;5.40;2.13;;;14.50;99.90;;;;;;5100469;28;20459;-51
2022/09/02 01:55:47;;;;;;;5.13;1.98;;;14.50;99.90;;;;;;5099790;28;20052;-51
2022/09/02 01:58:13;;;;;;;5.18;2.25;;;14.40;99.90;;;;;;5100044;28;20094;-50
2022/09/02 02:00:39;;;;;;;4.75;2.20;;;14.50;99.90;;;;;;5097783;28;20059;-50
2022/09/02 02:03:05;;;;;;;5.82;2.08;;;14.50;99.90;;;;;;5098799;28;20055;-52
2022/09/02 02:05:31;;;;;;;5.88;2.20;;;14.50;99.90;;;;;;5099486;28;20047;-50
2022/09/02 02:07:57;;;;;;;5.50;2.33;;;14.40;99.90;;;;;;5100023;28;20063;-50
2022/09/02 02:10:23;;;;;;;4.25;2.00;;;14.40;99.90;;;;;;5099619;28;20044;-49
2022/09/02 02:12:49;;;;;;;5.32;2.00;;;14.30;99.90;;;;;;5099412;28;20062;-50
2022/09/02 02:15:17;;;;;;;5.38;1.92;;;14.40;99.90;;;;;;5098306;28;20062;-52
2022/09/02 02:17:43;;;;;;;4.93;1.80;;;14.40;99.90;;;;;;5085765;28;20048;-50
2022/09/02 02:20:13;;;;;;;4.72;1.73;;;14.30;99.90;;;;;;5079680;28;20064;-49
2022/09/02 02:22:40;;;;;;;5.25;1.95;;;14.30;99.90;;;;;;5077698;28;20040;-51
2022/09/02 02:25:06;;;;;;;3.80;1.70;;;14.30;99.90;;;;;;5078157;28;20052;-51
2022/09/02 02:27:32;;;;;;;5.90;1.90;;;14.30;99.90;;;;;;5079354;28;20066;-51
2022/09/02 02:29:58;;;;;;;5.88;2.00;;;14.20;99.90;;;;;;5078606;28;20036;-54
2022/09/02 02:32:25;;;;;;;4.10;1.90;;;14.30;99.90;;;;;;5079353;28;20040;-51
2022/09/02 02:34:53;;;;;;;4.18;1.80;;;14.30;99.90;;;;;;5076918;28;20040;-50
2022/09/02 02:37:19;;;;;;;4.72;1.90;;;14.20;99.90;;;;;;5079292;28;20496;-50
2022/09/02 02:39:45;;;;;;;5.20;1.88;;;14.20;99.90;;;;;;5097362;28;20069;-51
2022/09/02 02:42:13;;;;;;;6.32;2.22;;;14.20;99.90;;;;;;5098413;28;20040;-51
2022/09/02 02:44:40;;;;;;;4.70;2.03;;;14.20;99.90;;;;;;5099128;28;20104;-51
2022/09/02 02:47:07;;;;;;;3.97;1.80;;;14.20;99.90;;;;;;5097141;28;20044;-49
2022/09/02 02:49:40;;;;;;;4.43;1.90;;;14.20;99.90;;;;;;5098937;28;20108;-52
2022/09/02 02:52:07;;;;;;;5.63;1.92;;;14.10;99.90;;;;;;5097030;28;20484;-50
2022/09/02 02:54:33;;;;;;;5.22;2.28;;;14.10;99.90;;;;;;5099233;28;20032;-51
2022/09/02 02:56:59;;;;;;;5.05;1.83;;;14.10;99.90;;;;;;5098545;28;20040;-49
2022/09/02 02:59:25;;;;;;;5.32;2.25;;;14.10;99.90;;;;;;5098811;28;20103;-49
2022/09/02 03:01:51;;;;;;;5.43;1.83;;;14.10;99.90;;;;;;5098898;28;20052;-49
2022/09/02 03:04:17;;;;;;;3.83;1.92;;;14.10;99.90;;;;;;5096953;28;20044;-51
2022/09/02 03:06:43;;;;;;;5.43;2.10;;;14.00;99.90;;;;;;5098774;28;20051;-50
2022/09/02 03:09:08;;;;;;;4.55;1.98;;;14.00;99.90;;;;;;5098059;28;20505;-49
2022/09/02 03:11:34;;;;;;;6.32;2.17;;;14.00;99.90;;;;;;5098898;28;20074;-51
2022/09/02 03:14:00;;;;;;;5.57;2.22;;;13.90;99.90;;;;;;5098432;28;20047;-50
2022/09/02 03:16:25;;;;;;;4.82;1.90;;;13.90;99.90;;;;;;5096128;28;20044;-49
2022/09/02 03:18:52;;;;;;;4.53;1.80;;;13.90;99.90;;;;;;5078272;28;20047;-51
2022/09/02 03:21:18;;;;;;;4.47;1.80;;;13.90;99.90;;;;;;5077869;28;20579;-52
2022/09/02 03:23:44;;;;;;;5.10;2.47;;;13.80;99.90;;;;;;5078087;28;20110;-49
2022/09/02 03:26:15;;;;;;;4.05;2.00;;;13.90;99.90;;;;;;5077297;28;20123;-51
2022/09/02 03:28:40;;;;;;;4.25;1.98;;;13.80;99.90;;;;;;5078370;28;20052;-49
2022/09/02 03:31:07;;;;;;;5.45;2.30;;;13.80;99.90;;;;;;5077899;28;20045;-50
2022/09/02 03:33:33;;;;;;;5.32;2.20;;;13.90;99.90;;;;;;5078239;28;20049;-48
2022/09/02 03:35:58;;;;;;;4.35;2.13;;;13.80;99.90;;;;;;5078262;28;20047;-49
2022/09/02 03:38:24;;;;;;;5.75;2.50;;;13.70;99.90;;;;;;5087762;28;20040;-52
2022/09/02 03:40:50;;;;;;;5.50;2.47;;;13.60;99.90;;;;;;5098120;28;20411;-51
2022/09/02 03:43:16;;;;;;;5.30;2.25;;;13.70;99.90;;;;;;5096213;28;20077;-49
2022/09/02 03:45:42;;;;;;;5.13;2.35;;;13.60;99.90;;;;;;5098445;28;20044;-50
2022/09/02 03:48:12;;;;;;;5.07;2.45;;;13.60;99.90;;;;;;5097728;28;20050;-50
2022/09/02 03:50:41;;;;;;;5.72;2.40;;;13.60;99.90;;;;;;5098264;28;20066;-49
2022/09/02 03:53:07;;;;;;;5.97;2.60;;;13.50;99.90;;;;;;5097844;28;20091;-52
2022/09/02 03:55:36;;;;;;;7.30;2.40;;;13.50;99.90;;;;;;5097041;28;20137;-48
2022/09/02 03:58:01;;;;;;;5.43;2.60;;;13.50;99.90;;;;;;5098090;28;20056;-52
2022/09/02 04:00:33;;;;;;;5.47;2.65;;;13.50;99.90;;;;;;5097522;28;20039;-48
2022/09/02 04:03:02;;;;;;;5.88;2.42;;;13.40;99.90;;;;;;5096902;28;20047;-49
2022/09/02 04:05:28;;;;;;;5.72;2.50;;;13.40;99.90;;;;;;5097412;28;20127;-50
2022/09/02 04:07:55;;;;;;;5.15;2.30;;;13.40;99.90;;;;;;5097708;28;20602;-51
2022/09/02 04:10:22;;;;;;;5.03;2.50;;;13.30;99.90;;;;;;5097893;28;20042;-50
2022/09/02 04:12:49;;;;;;;7.22;2.78;;;13.40;99.90;;;;;;5097385;28;20040;-51
2022/09/02 04:15:15;;;;;;;5.93;2.50;;;13.30;99.90;;;;;;5096416;28;20103;-51
2022/09/02 04:17:41;;;;;;;6.60;2.33;;;13.30;99.90;;;;;;5082770;28;20080;-50
2022/09/02 04:20:10;;;;;;;5.55;2.83;;;13.30;99.90;;;;;;5077978;28;20045;-49
2022/09/02 04:22:36;;;;;;;7.43;2.45;;;13.30;99.90;;;;;;5077122;28;21016;-50
2022/09/02 04:25:02;;;;;;;6.43;2.70;;;13.30;99.90;;;;;;5077704;28;20412;-50
2022/09/02 04:27:28;;;;;;;7.28;2.40;;;13.30;99.90;;;;;;5077845;28;20044;-49
2022/09/02 04:29:55;;;;;;;5.82;2.63;;;13.30;99.90;;;;;;5077047;28;20070;-49
2022/09/02 04:32:21;;;;;;;6.13;2.72;;;13.30;99.90;;;;;;5077629;28;20084;-51
2022/09/02 04:34:48;;;;;;;6.65;2.92;;;13.10;99.90;;;;;;5076606;28;20044;-54
2022/09/02 04:37:13;;;;;;;5.97;2.50;;;13.20;99.90;;;;;;5076764;28;20049;-51
2022/09/02 04:39:39;;;;;;;5.32;2.47;;;13.20;99.90;;;;;;5097156;28;20075;-48
2022/09/02 04:42:05;;;;;;;7.13;2.50;;;13.10;99.90;;;;;;5097722;28;20090;-50
2022/09/02 04:44:32;;;;;;;7.75;2.65;;;13.10;99.90;;;;;;5097829;28;20040;-51
2022/09/02 04:46:57;;;;;;;5.97;2.38;;;13.20;99.90;;;;;;5097047;28;20044;-51
2022/09/02 04:49:23;;;;;;;6.38;2.65;;;13.10;99.90;;;;;;5097322;28;20055;-51
2022/09/02 04:51:49;;;;;;;8.30;2.40;;;13.10;99.90;;;;;;5097050;28;20036;-51
2022/09/02 04:54:15;;;;;;;4.38;2.10;;;13.10;99.90;;;;;;5097973;28;20048;-51
2022/09/02 04:56:41;;;;;;;4.65;2.13;;;13.10;99.90;;;;;;5096793;28;20439;-52
2022/09/02 04:59:07;;;;;;;5.03;2.25;;;13.10;99.90;;;;;;5097722;28;20036;-51
2022/09/02 05:01:35;;;;;;;4.45;2.30;;;13.10;99.90;;;;;;5097342;28;20048;-52
2022/09/02 05:04:03;;;;;;;4.85;2.10;;;13.10;99.90;;;;;;5096861;28;20631;-50
2022/09/02 05:06:29;;;;;;;4.38;1.95;;;13.00;99.90;;;;;;5098978;28;20036;-49
2022/09/02 05:08:58;;;;;;;5.00;2.33;;;13.00;99.90;;;;;;5100449;28;20512;-50
2022/09/02 05:11:27;;;;;;;5.60;2.45;;;13.10;99.90;;;;;;5101449;28;20036;-50
2022/09/02 05:13:53;;;;;;;5.40;2.22;;;13.10;99.90;;;;;;5094334;28;20066;-51
2022/09/02 05:16:25;;;;;;;5.90;2.58;;;13.10;99.90;;;;;;5077379;28;20053;-51
2022/09/02 05:18:52;;;;;;;5.28;2.20;;;13.10;99.90;;;;;;5096215;28;20052;-51
2022/09/02 05:21:19;;;;;;;6.38;2.10;;;13.10;99.90;;;;;;5097176;28;20089;-51
2022/09/02 05:23:45;;;;;;;4.28;2.10;;;13.10;99.90;;;;;;5097462;28;20044;-51
2022/09/02 05:26:12;;;;;;;5.57;2.13;;;13.20;99.90;;;;;;5096425;28;20472;-49
2022/09/02 05:28:40;;;;;;;5.00;2.10;;;13.20;99.90;;;;;;5097799;28;20040;-51
2022/09/02 05:31:09;;;;;;;6.05;2.17;;;13.20;99.90;;;;;;5096880;28;20819;-52
2022/09/02 05:33:37;;;;;;;5.00;2.22;;;13.20;99.90;;;;;;5087269;28;20039;-52
2022/09/02 05:36:04;;;;;;;5.50;2.42;;;13.30;99.90;;;;;;5087170;28;20055;-52
2022/09/02 05:38:30;;;;;;;5.63;2.08;;;13.30;99.90;;;;;;5086993;28;20036;-51
2022/09/02 05:40:56;;;;;;;5.18;2.30;;;13.40;99.90;;;;;;5081570;28;20049;-50
2022/09/02 05:43:22;;;;;;;5.28;2.42;;;13.50;99.90;;;;;;5075868;28;20049;-53
2022/09/02 05:45:48;;;;;;;5.43;2.30;;;13.50;99.90;;;;;;5076832;28;20104;-53
2022/09/02 05:50:58;;;;;;;6.10;2.25;;;13.50;99.90;;;;;;5076089;28;20052;-52
2022/09/02 05:53:25;;;;;;;5.47;2.50;;;13.60;99.90;;;;;;5075433;28;20056;-53
2022/09/02 05:55:51;;;;;;;5.35;2.50;;;13.70;99.90;;;;;;5075600;28;20067;-54
2022/09/02 05:58:17;;;;;;;6.78;2.67;;;13.70;99.90;;;;;;5074944;28;20818;-53
2022/09/02 06:00:43;;;;;;;5.53;2.30;;;13.80;99.90;;;;;;5074639;28;20056;-53
2022/09/02 06:03:08;;;;;;;5.93;2.38;;;13.80;99.90;;;;;;5076205;28;20052;-53
2022/09/02 06:05:36;;;;;;;8.93;2.40;;;13.90;99.90;;;;;;5076276;28;20036;-52
2022/09/02 06:08:02;;;;;;;6.00;2.60;;;13.90;99.90;;;;;;5075960;28;20052;-54
2022/09/02 06:10:27;;;;;;;5.63;2.40;;;14.00;99.90;;;;;;5075961;28;20055;-54
2022/09/02 06:12:53;;;;;;;5.47;2.03;;;14.10;99.90;;;;;;5076048;28;20106;-52
2022/09/02 06:15:19;;;;;;;5.78;2.60;;;14.10;99.90;;;;;;5079206;28;20119;-51
2022/09/02 06:17:44;;;;;;;6.18;2.75;;;14.10;99.90;;;;;;5091329;28;20051;-51
2022/09/02 06:20:10;;;;;;;14.93;3.22;;;14.20;99.90;;;;;;5099726;28;20044;-51
2022/09/02 06:22:36;;;;;;;5.63;2.60;;;14.20;99.90;;;;;;5098356;28;20047;-53
2022/09/02 06:25:02;;;;;;;7.53;2.65;;;14.30;99.90;;;;;;5097448;28;20051;-53
2022/09/02 06:27:28;;;;;;;4.82;2.42;;;14.30;99.90;;;;;;5098299;28;20063;-53
2022/09/02 06:29:53;;;;;;;8.30;2.55;;;14.50;99.90;;;;;;5098938;28;20044;-53
2022/09/02 06:32:19;;;;;;;5.03;2.35;;;14.40;99.90;;;;;;5080904;28;20058;-53
2022/09/02 06:34:45;;;;;;;6.05;2.45;;;14.50;99.90;;;;;;5098369;28;20071;-53
2022/09/02 06:37:11;;;;;;;6.78;2.67;;;14.60;99.90;;;;;;5099331;28;20036;-53
2022/09/02 06:39:37;;;;;;;4.95;2.47;;;14.60;99.90;;;;;;5098614;28;20091;-53
2022/09/02 06:42:03;;;;;;;5.72;2.30;;;14.70;99.90;;;;;;5098877;28;20083;-51
2022/09/02 06:44:29;;;;;;;5.20;2.35;;;14.80;99.90;;;;;;5099166;28;20040;-51
2022/09/02 06:46:57;;;;;;;7.35;2.40;;;14.80;99.90;;;;;;5098597;28;20077;-50
2022/09/02 06:49:25;;;;;;;4.97;2.70;;;14.90;99.90;;;;;;5098792;28;20091;-52
2022/09/02 06:51:53;;;;;;;5.82;2.70;;;15.00;99.90;;;;;;5098531;28;20044;-52
2022/09/02 06:54:21;;;;;;;5.25;2.42;;;14.90;99.90;;;;;;5099296;28;20064;-51
2022/09/02 06:56:48;;;;;;;7.30;2.33;;;15.10;99.90;;;;;;5097079;28;20139;-51
2022/09/02 06:59:13;;;;;;;7.03;2.30;;;15.10;99.90;;;;;;5099034;28;20051;-52
2022/09/02 07:01:39;;;;;;;6.63;2.25;;;15.10;99.90;;;;;;5099127;28;20048;-51
2022/09/02 07:06:52;;;;;;;4.90;2.22;;;15.30;99.90;;;;;;5099024;28;20411;-51
2022/09/02 07:09:22;;;;;;;6.45;2.88;;;15.30;99.90;;;;;;5096562;28;20072;-50
2022/09/02 07:11:48;;;;;;;7.55;2.60;;;15.40;99.90;;;;;;5097908;28;20477;-52
2022/09/02 07:14:16;;;;;;;5.40;2.47;;;15.50;99.90;;;;;;5096704;28;20099;-49
2022/09/02 07:16:48;;;;;;;5.35;2.45;;;15.40;99.90;;;;;;5093536;28;20583;-51
2022/09/02 07:19:15;;;;;;;5.72;2.42;;;15.60;99.90;;;;;;5077702;28;20044;-51
2022/09/02 07:21:41;;;;;;;5.78;2.33;;;15.70;99.90;;;;;;5075726;28;20496;-51
2022/09/02 07:24:10;;;;;;;5.40;2.42;;;15.80;99.90;;;;;;5077323;28;20446;-50
2022/09/02 07:26:36;;;;;;;6.10;2.20;;;15.80;99.90;;;;;;5077738;28;20044;-51
2022/09/02 07:29:02;;;;;;;8.45;2.00;;;16.00;99.90;;;;;;5079020;28;20079;-48
2022/09/02 07:31:29;;;;;;;6.28;2.00;;;16.10;99.90;;;;;;5097561;28;20568;-48
2022/09/02 07:33:57;;;;;;;6.07;2.13;;;16.30;99.90;;;;;;5091523;28;20432;-52
2022/09/02 07:36:25;;;;;;;5.55;1.95;;;16.30;99.90;;;;;;5089658;28;20110;-52
2022/09/02 07:38:52;;;;;;;5.75;2.20;;;16.40;99.90;;;;;;5092954;28;20052;-52
2022/09/02 07:41:19;;;;;;;5.28;1.90;;;16.50;99.90;;;;;;5098219;28;20047;-51
2022/09/02 07:43:45;;;;;;;4.28;1.75;;;16.60;99.90;;;;;;5097543;28;20048;-51
2022/09/02 07:46:12;;;;;;;6.15;1.80;;;16.70;99.90;;;;;;5098153;28;20052;-51
2022/09/02 07:48:38;;;;;;;4.70;1.73;;;16.80;99.90;;;;;;5098084;28;20100;-48
2022/09/02 07:51:04;;;;;;;5.55;1.92;;;16.90;99.90;;;;;;5088048;28;20101;-51
2022/09/02 07:53:31;;;;;;;3.65;1.70;;;17.00;99.90;;;;;;5087987;28;20040;-52
2022/09/02 07:55:58;;;;;;;4.85;2.05;;;17.10;99.90;;;;;;5092290;28;20131;-51
2022/09/02 07:58:25;;;;;;;6.97;2.08;;;17.30;99.90;;;;;;5098381;28;20048;-51
2022/09/02 08:00:52;;;;;;;4.78;1.88;;;17.30;99.90;;;;;;5097564;28;20040;-51
2022/09/02 08:03:19;;;;;;;3.80;1.80;;;17.40;99.90;;;;;;5096063;28;20052;-51
2022/09/02 08:05:46;;;;;;;5.57;1.90;;;17.50;99.90;;;;;;5077846;28;20071;-49
2022/09/02 08:08:13;;;;;;;4.63;1.63;;;17.60;99.90;;;;;;5075852;28;20044;-52
2022/09/02 08:10:40;;;;;;;6.47;1.90;;;17.70;99.90;;;;;;5078385;28;20037;-50
2022/09/02 08:13:06;;;;;;;4.60;1.80;;;17.80;99.90;;;;;;5087120;28;20028;-50
2022/09/02 08:15:35;;;;;;;5.75;1.88;;;17.90;99.90;;;;;;5090604;28;20051;-49
2022/09/02 08:18:01;;;;;;;5.32;1.67;;;17.90;99.90;;;;;;5081380;28;20045;-50
2022/09/02 08:20:29;;;;;;;5.78;2.00;;;18.10;99.90;;;;;;5077888;28;20047;-52
2022/09/02 08:22:55;;;;;;;4.55;1.73;;;18.10;99.90;;;;;;5076329;28;20102;-54
2022/09/02 08:25:21;;;;;;;5.22;1.80;;;18.20;99.90;;;;;;5077270;28;20490;-53
2022/09/02 08:27:48;;;;;;;5.40;1.63;;;18.20;99.90;;;;;;5084939;28;20048;-53
2022/09/02 08:30:14;;;;;;;9.27;2.10;;;18.40;99.90;;;;;;5086677;28;20887;-53
2022/09/02 08:32:41;;;;;;;4.85;1.80;;;18.40;99.90;;;;;;5096739;28;20046;-54
2022/09/02 08:35:09;;;;;;;6.57;1.95;;;18.50;99.90;;;;;;5097291;28;20040;-53
2022/09/02 08:37:36;;;;;;;6.07;1.80;;;18.60;99.90;;;;;;5097756;28;20060;-54
2022/09/02 08:40:05;;;;;;;4.72;1.50;;;18.70;99.90;;;;;;5092500;28;20047;-54
2022/09/02 08:42:40;;;;;;;4.03;1.70;;;18.80;99.90;;;;;;5097945;28;20067;-54
2022/09/02 08:45:12;;;;;;;6.68;1.75;;;18.90;99.90;;;;;;5098382;28;20482;-53
2022/09/02 08:47:42;;;;;;;4.18;1.65;;;19.00;99.90;;;;;;5090460;28;20043;-54
2022/09/02 08:50:15;;;;;;;4.82;1.90;;;19.00;99.90;;;;;;5090309;28;20040;-54
2022/09/02 08:53:03;;;;;;;5.50;1.52;;;19.00;99.90;;;;;;5089397;28;20040;-53
2022/09/02 08:55:46;;;;;;;5.53;1.70;;;19.10;99.90;;;;;;5092997;28;20077;-54
2022/09/02 08:58:18;;;;;;;8.77;2.00;;;19.10;99.90;;;;;;5089452;28;20039;-54
2022/09/02 09:00:50;;;;;;;4.80;1.80;;;19.10;99.90;;;;;;5079958;28;20040;-52
2022/09/02 09:03:29;;;;;;;;;;;19.20;99.90;;;;;;5081309;28;20084;-52
2022/09/02 09:06:11;;;;;;;7.03;2.10;;;19.30;99.90;;;;;;5080750;28;19920;-52
2022/09/02 09:08:46;;;;;;;5.10;2.15;;;19.40;99.90;;;;;;5078467;28;20077;-51
2022/09/02 09:11:34;;;;;;;6.93;1.77;;;19.40;99.90;;;;;;5080986;28;20100;-53
2022/09/02 09:14:05;;;;;;;4.65;1.80;;;19.50;99.90;;;;;;5080407;28;20053;-50
2022/09/02 09:17:02;;;;;;;5.25;2.03;;;19.60;99.90;;;;;;5083381;28;20494;-51
2022/09/02 09:19:52;;;;;;;6.32;1.67;;;19.70;99.90;;;;;;5093200;28;20105;-50
2022/09/02 09:22:23;;;;;;;8.75;1.67;;;19.80;99.90;;;;;;5100376;28;20040;-50
2022/09/02 09:24:50;;;;;;;6.10;1.60;;;19.90;99.90;;;;;;5100915;28;20035;-52
2022/09/02 09:27:21;;;;;;;5.43;2.00;;;19.90;99.90;;;;;;5100629;28;20055;-50
2022/09/02 09:29:48;;;;;;;4.72;1.60;;;20.10;99.90;;;;;;5100379;28;20095;-51
2022/09/02 09:32:22;;;;;;;4.47;1.50;;;20.00;99.90;;;;;;5099885;28;20036;-52
2022/09/02 09:34:51;;;;;;;6.60;1.73;;;20.10;99.50;;;;;;5099586;28;20102;-51
2022/09/02 09:37:36;;;;;;;3.85;1.52;;;20.20;99.90;;;;;;5099473;28;20039;-51
2022/09/02 09:40:23;;;;;;;3.97;1.50;;;20.30;99.80;;;;;;5099892;28;20044;-51
2022/09/02 09:43:04;;;;;;;5.40;1.60;;;20.30;99.40;;;;;;5099474;28;20048;-52
2022/09/02 09:45:31;;;;;;;4.13;1.45;;;20.50;99.80;;;;;;5098964;28;20063;-49
2022/09/02 09:48:15;;;;;;;5.82;1.85;;;20.60;99.50;;;;;;5099186;28;20127;-51
2022/09/02 09:50:46;;;;;;;8.38;1.65;;;20.60;99.20;;;;;;5096312;28;20074;-51
2022/09/02 09:53:19;;;;;;;6.25;1.63;;;20.70;99.30;;;;;;5085665;28;20028;-52
2022/09/02 09:56:19;;;;;;;8.13;1.92;;;20.70;98.40;;;;;;5087509;28;20052;-51
2022/09/02 09:58:47;;;;;;;3.95;1.35;;;20.70;98.00;;;;;;5089072;28;20435;-52
2022/09/02 10:01:17;;;;;;;5.15;1.33;;;20.80;98.60;;;;;;5089236;28;20063;-51
2022/09/02 10:04:00;;;;;;;6.53;1.40;;;20.90;98.20;;;;;;5089933;28;20100;-52
2022/09/02 10:06:31;;;;;;;4.78;1.30;;;21.10;98.60;;;;;;5094324;28;20055;-52
2022/09/02 10:09:03;;;;;;;6.50;1.40;;;21.20;98.40;;;;;;5098597;28;20055;-52
2022/09/02 10:11:34;;;;;;;6.22;1.80;;;21.20;98.20;;;;;;5099777;28;20614;-52
2022/09/02 10:14:03;;;;;;;5.15;1.45;;;21.20;98.10;;;;;;5099246;28;20059;-53
2022/09/02 10:16:31;;;;;;;5.50;1.75;;;21.40;97.90;;;;;;5096459;28;20060;-53
2022/09/02 10:19:14;;;;;;;5.25;1.30;;;21.30;98.00;;;;;;5079175;28;20055;-53
2022/09/02 10:21:51;;;;;;;4.25;1.05;;;21.40;97.10;;;;;;5078577;28;20543;-52
2022/09/02 10:24:54;;;;;;;6.97;1.60;;;21.50;96.90;;;;;;5079780;28;20055;-52
2022/09/02 10:27:59;;;;;;;4.90;1.50;;;21.50;96.70;;;;;;5079569;28;20817;-52
2022/09/02 10:30:27;;;;;;;7.10;1.50;;;21.60;96.20;;;;;;5078599;28;20067;-53
2022/09/02 10:33:28;;;;;;;4.35;1.40;;;21.60;96.70;;;;;;5079612;28;20069;-53
2022/09/02 10:36:05;;;;;;;3.65;1.27;;;21.70;96.10;;;;;;5079227;28;20059;-52
2022/09/02 10:38:42;;;;;;;4.93;1.27;;;21.70;95.30;;;;;;5089365;28;20040;-53
2022/09/02 10:41:41;;;;;;;9.57;1.52;;;21.80;95.20;;;;;;5099566;28;20047;-53
2022/09/02 10:44:31;;;;;;;3.63;1.20;;;21.90;94.10;;;;;;5099043;28;20127;-52
2022/09/02 10:47:05;;;;;;;18.20;1.98;;;21.90;94.40;;;;;;5097424;28;20062;-53
2022/09/02 10:49:52;;;;;;;5.00;1.38;;;22.00;94.40;;;;;;5099344;28;20131;-55
2022/09/02 10:52:32;;;;;;;7.70;1.40;;;22.00;93.90;;;;;;5098607;28;20036;-53
2022/09/02 10:55:23;;;;;;;5.68;1.50;;;22.00;94.30;;;;;;5098810;28;20040;-52
2022/09/02 10:57:59;;;;;;;4.90;1.20;;;22.10;94.70;;;;;;5098818;28;20104;-53
2022/09/02 11:00:26;;;;;;;4.60;1.10;;;22.10;94.00;;;;;;5098144;28;20051;-53
2022/09/02 11:03:19;;;;;;;3.35;1.15;;;22.20;94.10;;;;;;5098808;28;20054;-52
2022/09/02 11:06:04;;;;;;;6.07;1.40;;;22.20;93.00;;;;;;5099017;28;20070;-53
2022/09/02 11:09:12;;;;;;;3.85;1.40;;;22.20;93.40;;;;;;5098297;28;20046;-54
2022/09/02 11:11:46;;;;;;;4.85;1.10;;;22.30;93.60;;;;;;5099162;28;20056;-53
2022/09/02 11:14:33;;;;;;;5.07;1.35;;;22.40;93.30;;;;;;5098600;28;20069;-53
2022/09/02 11:17:19;;;;;;;4.70;1.25;;;22.40;93.50;;;;;;5089205;28;20060;-53
2022/09/02 11:19:54;;;;;;;6.75;1.20;;;22.70;94.10;;;;;;5078654;28;20040;-53
2022/09/02 11:22:22;;;;;;;6.65;1.23;;;22.70;93.70;;;;;;5077813;28;20037;-52
2022/09/02 11:25:23;;;;;;;5.60;1.58;;;22.70;93.60;;;;;;5078393;28;20056;-52
2022/09/02 11:27:55;;;;;;;6.10;1.27;;;22.80;93.20;;;;;;5061887;28;20055;-52
2022/09/02 11:30:25;;;;;;;11.48;1.30;;;22.80;93.30;;;;;;5077464;28;20045;-53
2022/09/02 11:33:26;;;;;;;3.75;1.38;;;22.80;93.40;;;;;;5078611;28;20554;-54
2022/09/02 11:35:52;;;;;;;5.47;1.23;;;22.70;93.00;;;;;;5054665;28;20052;-53
2022/09/02 11:38:38;;;;;;;6.45;1.30;;;22.90;93.20;;;;;;5086925;28;20043;-53
2022/09/02 11:41:24;;;;;;;3.92;0.95;;;22.90;92.60;;;;;;5098499;28;20109;-53
2022/09/02 11:44:04;;;;;;;4.13;1.15;;;23.00;91.80;;;;;;5097964;28;20050;-52
2022/09/02 11:46:52;;;;;;;4.88;1.20;;;23.10;92.70;;;;;;5097367;28;20070;-52
2022/09/02 11:49:42;;;;;;;6.32;1.35;;;23.10;92.40;;;;;;5098463;28;20131;-52
2022/09/02 11:52:24;;;;;;;5.55;1.27;;;23.10;92.20;;;;;;5097580;28;20050;-52
2022/09/02 11:55:13;;;;;;;7.20;1.10;;;23.10;91.90;;;;;;5098229;28;20052;-49
2022/09/02 11:57:40;;;;;;;3.63;1.13;;;23.20;92.10;;;;;;5097978;28;20546;-54
2022/09/02 12:00:32;;;;;;;4.55;1.30;;;23.30;92.20;;;;;;5097395;28;20059;-53
2022/09/02 12:03:03;;;;;;;6.65;1.35;;;23.30;92.30;;;;;;5098068;28;20036;-53
2022/09/02 12:05:29;;;;;;;7.15;1.30;;;23.40;92.10;;;;;;5096759;28;20077;-50
2022/09/02 12:07:57;;;;;;;5.60;1.55;;;23.30;92.20;;;;;;5097793;28;20095;-53
2022/09/02 12:10:41;;;;;;;4.07;1.08;;;23.50;92.20;;;;;;5096630;28;20044;-52
2022/09/02 12:13:08;;;;;;;5.72;1.40;;;23.50;91.40;;;;;;5097098;28;20046;-53
2022/09/02 12:15:34;;;;;;;5.53;1.30;;;23.60;91.90;;;;;;5100499;28;20105;-53
2022/09/02 12:18:27;;;;;;;4.93;1.40;;;23.70;91.70;;;;;;5085909;28;20063;-52
2022/09/02 12:20:59;;;;;;;5.35;1.30;;;23.60;91.70;;;;;;5079623;28;20615;-51
2022/09/02 12:23:57;;;;;;;4.72;1.30;;;23.70;91.40;;;;;;5081293;28;20353;-53
2022/09/02 12:26:28;;;;;;;6.28;1.60;;;23.60;91.40;;;;;;5057359;28;20052;-52
2022/09/02 12:29:11;;;;;;;3.78;1.27;;;23.60;91.30;;;;;;5079968;28;20044;-53
2022/09/02 12:31:42;;;;;;;6.88;1.52;;;23.60;91.80;;;;;;5080401;28;20572;-53
2022/09/02 12:34:20;;;;;;;6.28;1.38;;;23.60;91.40;;;;;;5080913;28;20040;-53
2022/09/02 12:36:49;;;;;;;3.95;1.10;;;23.60;91.10;;;;;;5081906;28;20049;-53
2022/09/02 12:39:26;;;;;;;7.43;1.58;;;23.80;91.30;;;;;;5098197;28;20516;-53
2022/09/02 12:42:00;;;;;;;5.30;1.30;;;23.80;91.70;;;;;;5101647;28;20044;-53
2022/09/02 12:44:42;;;;;;;6.40;1.42;;;23.90;91.60;;;;;;5095100;28;20131;-53
2022/09/02 12:47:22;;;;;;;6.57;1.30;;;24.00;91.30;;;;;;5088491;28;20056;-52
2022/09/02 12:49:59;;;;;;;5.45;1.38;;;23.80;91.50;;;;;;5091067;28;20040;-52
2022/09/02 12:52:43;;;;;;;5.18;1.30;;;24.00;91.20;;;;;;5100103;28;20036;-52
2022/09/02 12:55:24;;;;;;;4.80;1.20;;;24.00;91.10;;;;;;5100933;28;20047;-53
2022/09/02 12:58:07;;;;;;;4.38;1.30;;;24.00;91.30;;;;;;5098048;28;20056;-53
2022/09/02 13:01:08;;;;;;;4.78;1.17;;;24.00;90.80;;;;;;5090340;28;20087;-52
2022/09/02 13:03:43;;;;;;;3.03;1.20;;;24.10;90.90;;;;;;5090622;28;20040;-52
2022/09/02 13:06:35;;;;;;;6.70;1.15;;;24.00;90.50;;;;;;5090141;28;20095;-53
2022/09/02 13:09:36;;;;;;;4.60;1.40;;;24.00;90.60;;;;;;5090908;28;20051;-53
2022/09/02 13:12:08;;;;;;;6.60;2.10;;;24.00;90.80;;;;;;5091444;28;20036;-53
2022/09/02 13:14:52;;;;;;;5.28;1.15;;;23.90;90.40;;;;;;5089938;28;20055;-51